sensor_id;sensor_type;location;lat;lon;timestamp;temperature;humidity
27801;DHT22;15181;49.112;11.930;2022-07-19T00:02:23;17.10;99.90
27801;DHT22;15181;49.112;11.930;2022-07-19T00:04:50;17.10;99.90
27801;DHT22;15181;49.112;11.930;2022-07-19T00:07:16;17.00;99.90
27801;DHT22;15181;49.112;11.930;2022-07-19T00:09:43;16.90;99.90
27801;DHT22;15181;49.112;11.930;2022-07-19T00:12:10;16.70;99.90
27801;DHT22;15181;49.112;11.930;2022-07-19T00:14:39;16.60;99.90
27801;DHT22;15181;49.112;11.930;2022-07-19T00:17:07;16.50;99.90
27801;DHT22;15181;49.112;11.930;2022-07-19T00:19:34;16.40;99.90
27801;DHT22;15181;49.112;11.930;2022-07-19T00:22:00;16.40;99.90
27801;DHT22;15181;49.112;11.930;2022-07-19T00:24:27;16.40;99.90
27801;DHT22;15181;49.112;11.930;2022-07-19T00:26:54;16.40;99.90
27801;DHT22;15181;49.112;11.930;2022-07-19T00:29:21;16.40;99.90
27801;DHT22;15181;49.112;11.930;2022-07-19T00:31:48;16.40;99.90
27801;DHT22;15181;49.112;11.930;2022-07-19T00:34:16;16.50;99.90
27801;DHT22;15181;49.112;11.930;2022-07-19T00:36:43;16.40;99.90
27801;DHT22;15181;49.112;11.930;2022-07-19T00:39:10;16.40;99.90
27801;DHT22;15181;49.112;11.930;2022-07-19T00:41:39;16.30;99.90
27801;DHT22;15181;49.112;11.930;2022-07-19T00:44:07;16.10;99.90
27801;DHT22;15181;49.112;11.930;2022-07-19T00:46:34;16.10;99.90
27801;DHT22;15181;49.112;11.930;2022-07-19T00:49:01;16.10;99.90
27801;DHT22;15181;49.112;11.930;2022-07-19T00:51:29;16.10;99.90
27801;DHT22;15181;49.112;11.930;2022-07-19T00:53:57;16.00;99.90
27801;DHT22;15181;49.112;11.930;2022-07-19T00:56:25;16.00;99.90
27801;DHT22;15181;49.112;11.930;2022-07-19T00:58:54;16.00;99.90
27801;DHT22;15181;49.112;11.930;2022-07-19T01:01:21;15.90;99.90
27801;DHT22;15181;49.112;11.930;2022-07-19T01:03:48;15.90;99.90
27801;DHT22;15181;49.112;11.930;2022-07-19T01:06:15;15.70;99.90
27801;DHT22;15181;49.112;11.930;2022-07-19T01:08:44;15.80;99.90
27801;DHT22;15181;49.112;11.930;2022-07-19T01:11:10;15.80;99.90
27801;DHT22;15181;49.112;11.930;2022-07-19T01:13:37;15.60;99.90
27801;DHT22;15181;49.112;11.930;2022-07-19T01:16:05;15.50;99.90
27801;DHT22;15181;49.112;11.930;2022-07-19T01:18:31;15.50;99.90
27801;DHT22;15181;49.112;11.930;2022-07-19T01:20:59;15.50;99.90
27801;DHT22;15181;49.112;11.930;2022-07-19T01:23:28;15.50;99.90
27801;DHT22;15181;49.112;11.930;2022-07-19T01:25:55;15.40;99.90
27801;DHT22;15181;49.112;11.930;2022-07-19T01:28:22;15.50;99.90
27801;DHT22;15181;49.112;11.930;2022-07-19T01:30:49;15.50;99.90
27801;DHT22;15181;49.112;11.930;2022-07-19T01:33:16;15.40;99.90
27801;DHT22;15181;49.112;11.930;2022-07-19T01:35:43;15.30;99.90
27801;DHT22;15181;49.112;11.930;2022-07-19T01:38:09;15.30;99.90
27801;DHT22;15181;49.112;11.930;2022-07-19T01:40:38;15.20;99.90
27801;DHT22;15181;49.112;11.930;2022-07-19T01:43:07;15.20;99.90
27801;DHT22;15181;49.112;11.930;2022-07-19T01:45:34;15.20;99.90
27801;DHT22;15181;49.112;11.930;2022-07-19T01:48:01;15.10;99.90
27801;DHT22;15181;49.112;11.930;2022-07-19T01:50:28;15.10;99.90
27801;DHT22;15181;49.112;11.930;2022-07-19T01:52:55;15.10;99.90
27801;DHT22;15181;49.112;11.930;2022-07-19T01:55:22;15.10;99.90
27801;DHT22;15181;49.112;11.930;2022-07-19T01:57:50;15.00;99.90
27801;DHT22;15181;49.112;11.930;2022-07-19T02:00:17;14.90;99.90
27801;DHT22;15181;49.112;11.930;2022-07-19T02:02:44;14.90;99.90
27801;DHT22;15181;49.112;11.930;2022-07-19T02:05:10;14.90;99.90
27801;DHT22;15181;49.112;11.930;2022-07-19T02:07:37;14.90;99.90
27801;DHT22;15181;49.112;11.930;2022-07-19T02:10:05;14.90;99.90
27801;DHT22;15181;49.112;11.930;2022-07-19T02:12:32;14.90;99.90
27801;DHT22;15181;49.112;11.930;2022-07-19T02:15:00;14.90;99.90
27801;DHT22;15181;49.112;11.930;2022-07-19T02:17:27;14.80;99.90
27801;DHT22;15181;49.112;11.930;2022-07-19T02:19:54;14.70;99.90
27801;DHT22;15181;49.112;11.930;2022-07-19T02:22:21;14.70;99.90
27801;DHT22;15181;49.112;11.930;2022-07-19T02:24:48;14.60;99.90
27801;DHT22;15181;49.112;11.930;2022-07-19T02:27:15;14.60;99.90
27801;DHT22;15181;49.112;11.930;2022-07-19T02:29:42;14.60;99.90
27801;DHT22;15181;49.112;11.930;2022-07-19T02:32:10;14.60;99.90
27801;DHT22;15181;49.112;11.930;2022-07-19T02:34:37;14.60;99.90
27801;DHT22;15181;49.112;11.930;2022-07-19T02:37:04;14.60;99.90
27801;DHT22;15181;49.112;11.930;2022-07-19T02:39:30;14.60;99.90
27801;DHT22;15181;49.112;11.930;2022-07-19T02:41:57;14.50;99.90
27801;DHT22;15181;49.112;11.930;2022-07-19T02:44:24;14.60;99.90
27801;DHT22;15181;49.112;11.930;2022-07-19T02:46:51;14.50;99.90
27801;DHT22;15181;49.112;11.930;2022-07-19T02:49:19;14.40;99.90
27801;DHT22;15181;49.112;11.930;2022-07-19T02:51:46;14.30;99.90
27801;DHT22;15181;49.112;11.930;2022-07-19T02:54:13;14.30;99.90
27801;DHT22;15181;49.112;11.930;2022-07-19T02:56:40;14.20;99.90
27801;DHT22;15181;49.112;11.930;2022-07-19T02:59:07;14.10;99.90
27801;DHT22;15181;49.112;11.930;2022-07-19T03:01:34;14.10;99.90
27801;DHT22;15181;49.112;11.930;2022-07-19T03:04:01;14.10;99.90
27801;DHT22;15181;49.112;11.930;2022-07-19T03:06:29;14.20;99.90
27801;DHT22;15181;49.112;11.930;2022-07-19T03:08:56;14.10;99.90
27801;DHT22;15181;49.112;11.930;2022-07-19T03:11:22;14.10;99.90
27801;DHT22;15181;49.112;11.930;2022-07-19T03:13:49;14.10;99.90
27801;DHT22;15181;49.112;11.930;2022-07-19T03:16:16;14.00;99.90
27801;DHT22;15181;49.112;11.930;2022-07-19T03:18:43;14.00;99.90
27801;DHT22;15181;49.112;11.930;2022-07-19T03:21:10;14.00;99.90
27801;DHT22;15181;49.112;11.930;2022-07-19T03:23:38;13.90;99.90
27801;DHT22;15181;49.112;11.930;2022-07-19T03:26:05;14.00;99.90
27801;DHT22;15181;49.112;11.930;2022-07-19T03:28:32;14.00;99.90
27801;DHT22;15181;49.112;11.930;2022-07-19T03:30:59;13.80;99.90
27801;DHT22;15181;49.112;11.930;2022-07-19T03:33:26;13.80;99.90
27801;DHT22;15181;49.112;11.930;2022-07-19T03:35:53;13.80;99.90
27801;DHT22;15181;49.112;11.930;2022-07-19T03:38:20;13.80;99.90
27801;DHT22;15181;49.112;11.930;2022-07-19T03:40:49;13.80;99.90
27801;DHT22;15181;49.112;11.930;2022-07-19T03:43:16;13.80;99.90
27801;DHT22;15181;49.112;11.930;2022-07-19T03:45:44;13.80;99.90
27801;DHT22;15181;49.112;11.930;2022-07-19T03:48:11;13.80;99.90
27801;DHT22;15181;49.112;11.930;2022-07-19T03:50:38;13.80;99.90
27801;DHT22;15181;49.112;11.930;2022-07-19T03:53:06;13.70;99.90
27801;DHT22;15181;49.112;11.930;2022-07-19T03:55:33;13.80;99.90
27801;DHT22;15181;49.112;11.930;2022-07-19T03:58:01;13.80;99.90
27801;DHT22;15181;49.112;11.930;2022-07-19T04:00:28;13.80;99.90
27801;DHT22;15181;49.112;11.930;2022-07-19T04:02:55;13.70;99.90
27801;DHT22;15181;49.112;11.930;2022-07-19T04:05:22;13.70;99.90
27801;DHT22;15181;49.112;11.930;2022-07-19T04:07:49;13.70;99.90
27801;DHT22;15181;49.112;11.930;2022-07-19T04:10:16;13.80;99.90
27801;DHT22;15181;49.112;11.930;2022-07-19T04:12:42;13.90;99.90
27801;DHT22;15181;49.112;11.930;2022-07-19T04:15:11;14.10;99.90
27801;DHT22;15181;49.112;11.930;2022-07-19T04:17:37;14.20;99.90
27801;DHT22;15181;49.112;11.930;2022-07-19T04:20:05;14.20;99.90
27801;DHT22;15181;49.112;11.930;2022-07-19T04:22:32;14.30;99.90
27801;DHT22;15181;49.112;11.930;2022-07-19T04:24:59;14.40;99.90
27801;DHT22;15181;49.112;11.930;2022-07-19T04:27:28;14.60;99.90
27801;DHT22;15181;49.112;11.930;2022-07-19T04:29:55;14.70;99.90
27801;DHT22;15181;49.112;11.930;2022-07-19T04:32:23;15.00;99.90
27801;DHT22;15181;49.112;11.930;2022-07-19T04:34:49;15.10;99.90
27801;DHT22;15181;49.112;11.930;2022-07-19T04:37:16;15.20;99.90
27801;DHT22;15181;49.112;11.930;2022-07-19T04:39:43;15.40;99.90
27801;DHT22;15181;49.112;11.930;2022-07-19T04:42:10;15.50;99.90
27801;DHT22;15181;49.112;11.930;2022-07-19T04:44:37;15.60;99.90
27801;DHT22;15181;49.112;11.930;2022-07-19T04:47:04;15.80;99.90
27801;DHT22;15181;49.112;11.930;2022-07-19T04:49:32;15.90;99.90
27801;DHT22;15181;49.112;11.930;2022-07-19T04:51:59;16.00;99.90
27801;DHT22;15181;49.112;11.930;2022-07-19T04:54:26;16.10;99.90
27801;DHT22;15181;49.112;11.930;2022-07-19T04:56:53;16.30;99.90
27801;DHT22;15181;49.112;11.930;2022-07-19T04:59:20;16.40;99.90
27801;DHT22;15181;49.112;11.930;2022-07-19T05:01:47;16.50;99.90
27801;DHT22;15181;49.112;11.930;2022-07-19T05:04:13;16.60;99.90
27801;DHT22;15181;49.112;11.930;2022-07-19T05:06:42;16.70;99.90
27801;DHT22;15181;49.112;11.930;2022-07-19T05:09:10;16.80;99.90
27801;DHT22;15181;49.112;11.930;2022-07-19T05:11:36;16.90;99.90
27801;DHT22;15181;49.112;11.930;2022-07-19T05:14:03;17.10;99.90
27801;DHT22;15181;49.112;11.930;2022-07-19T05:16:30;17.20;99.90
27801;DHT22;15181;49.112;11.930;2022-07-19T05:18:57;17.30;99.90
27801;DHT22;15181;49.112;11.930;2022-07-19T05:21:24;17.40;99.90
27801;DHT22;15181;49.112;11.930;2022-07-19T05:23:52;17.50;99.90
27801;DHT22;15181;49.112;11.930;2022-07-19T05:26:19;17.70;99.90
27801;DHT22;15181;49.112;11.930;2022-07-19T05:28:45;17.80;99.90
27801;DHT22;15181;49.112;11.930;2022-07-19T05:31:12;18.00;99.90
27801;DHT22;15181;49.112;11.930;2022-07-19T05:33:39;18.10;99.90
27801;DHT22;15181;49.112;11.930;2022-07-19T05:36:06;18.20;99.90
27801;DHT22;15181;49.112;11.930;2022-07-19T05:38:36;18.30;99.90
27801;DHT22;15181;49.112;11.930;2022-07-19T05:41:06;18.40;99.90
27801;DHT22;15181;49.112;11.930;2022-07-19T05:43:34;18.50;99.90
27801;DHT22;15181;49.112;11.930;2022-07-19T05:46:01;18.60;99.90
27801;DHT22;15181;49.112;11.930;2022-07-19T05:48:28;18.70;99.90
27801;DHT22;15181;49.112;11.930;2022-07-19T05:50:55;18.80;99.90
27801;DHT22;15181;49.112;11.930;2022-07-19T05:53:22;19.00;99.90
27801;DHT22;15181;49.112;11.930;2022-07-19T05:55:48;19.10;99.90
27801;DHT22;15181;49.112;11.930;2022-07-19T05:58:16;19.30;99.90
27801;DHT22;15181;49.112;11.930;2022-07-19T06:00:44;19.40;99.90
27801;DHT22;15181;49.112;11.930;2022-07-19T06:03:32;19.50;99.90
27801;DHT22;15181;49.112;11.930;2022-07-19T06:05:59;19.70;99.90
27801;DHT22;15181;49.112;11.930;2022-07-19T06:08:25;19.80;99.90
27801;DHT22;15181;49.112;11.930;2022-07-19T06:10:52;19.90;99.90
27801;DHT22;15181;49.112;11.930;2022-07-19T06:13:21;20.00;99.90
27801;DHT22;15181;49.112;11.930;2022-07-19T06:15:48;20.10;99.90
27801;DHT22;15181;49.112;11.930;2022-07-19T06:18:15;20.30;99.90
27801;DHT22;15181;49.112;11.930;2022-07-19T06:20:42;20.40;99.90
27801;DHT22;15181;49.112;11.930;2022-07-19T06:23:09;20.50;99.90
27801;DHT22;15181;49.112;11.930;2022-07-19T06:25:36;20.60;99.90
27801;DHT22;15181;49.112;11.930;2022-07-19T06:28:03;20.80;99.90
27801;DHT22;15181;49.112;11.930;2022-07-19T06:30:31;21.00;99.90
27801;DHT22;15181;49.112;11.930;2022-07-19T06:32:58;21.10;99.90
27801;DHT22;15181;49.112;11.930;2022-07-19T06:35:25;21.10;99.90
27801;DHT22;15181;49.112;11.930;2022-07-19T06:37:52;21.30;99.90
27801;DHT22;15181;49.112;11.930;2022-07-19T06:40:19;21.50;99.90
27801;DHT22;15181;49.112;11.930;2022-07-19T06:42:46;21.80;99.90
27801;DHT22;15181;49.112;11.930;2022-07-19T06:45:13;21.90;99.90
27801;DHT22;15181;49.112;11.930;2022-07-19T06:47:42;22.10;99.90
27801;DHT22;15181;49.112;11.930;2022-07-19T06:50:09;22.30;99.90
27801;DHT22;15181;49.112;11.930;2022-07-19T06:52:36;22.50;99.90
27801;DHT22;15181;49.112;11.930;2022-07-19T06:55:03;22.60;99.90
27801;DHT22;15181;49.112;11.930;2022-07-19T06:57:30;22.60;99.90
27801;DHT22;15181;49.112;11.930;2022-07-19T06:59:56;22.70;99.90
27801;DHT22;15181;49.112;11.930;2022-07-19T07:02:23;22.90;99.90
27801;DHT22;15181;49.112;11.930;2022-07-19T07:04:51;23.10;99.90
27801;DHT22;15181;49.112;11.930;2022-07-19T07:07:18;23.10;99.90
27801;DHT22;15181;49.112;11.930;2022-07-19T07:09:45;23.30;99.90
27801;DHT22;15181;49.112;11.930;2022-07-19T07:12:12;23.50;99.90
27801;DHT22;15181;49.112;11.930;2022-07-19T07:14:39;23.50;99.90
27801;DHT22;15181;49.112;11.930;2022-07-19T07:17:06;23.60;99.90
27801;DHT22;15181;49.112;11.930;2022-07-19T07:19:32;23.80;99.90
27801;DHT22;15181;49.112;11.930;2022-07-19T07:22:01;23.80;99.90
27801;DHT22;15181;49.112;11.930;2022-07-19T07:24:28;24.00;99.90
27801;DHT22;15181;49.112;11.930;2022-07-19T07:26:55;24.20;99.90
27801;DHT22;15181;49.112;11.930;2022-07-19T07:29:22;24.40;99.90
27801;DHT22;15181;49.112;11.930;2022-07-19T07:31:48;24.60;99.90
27801;DHT22;15181;49.112;11.930;2022-07-19T07:34:15;24.80;99.90
27801;DHT22;15181;49.112;11.930;2022-07-19T07:36:42;24.90;99.90
27801;DHT22;15181;49.112;11.930;2022-07-19T07:39:12;25.10;99.90
27801;DHT22;15181;49.112;11.930;2022-07-19T07:41:38;25.20;99.90
27801;DHT22;15181;49.112;11.930;2022-07-19T07:44:06;25.30;99.90
27801;DHT22;15181;49.112;11.930;2022-07-19T07:46:33;25.40;99.90
27801;DHT22;15181;49.112;11.930;2022-07-19T07:48:59;25.50;99.90
27801;DHT22;15181;49.112;11.930;2022-07-19T07:51:26;25.60;99.90
27801;DHT22;15181;49.112;11.930;2022-07-19T07:53:53;25.80;99.90
27801;DHT22;15181;49.112;11.930;2022-07-19T07:56:21;26.00;99.90
27801;DHT22;15181;49.112;11.930;2022-07-19T07:58:50;26.10;99.90
27801;DHT22;15181;49.112;11.930;2022-07-19T08:01:16;26.30;99.90
27801;DHT22;15181;49.112;11.930;2022-07-19T08:03:43;26.40;99.90
27801;DHT22;15181;49.112;11.930;2022-07-19T08:06:10;26.50;99.90
27801;DHT22;15181;49.112;11.930;2022-07-19T08:08:38;26.60;99.90
27801;DHT22;15181;49.112;11.930;2022-07-19T08:11:05;26.80;99.90
27801;DHT22;15181;49.112;11.930;2022-07-19T08:13:33;26.90;99.90
27801;DHT22;15181;49.112;11.930;2022-07-19T08:16:00;27.00;99.90
27801;DHT22;15181;49.112;11.930;2022-07-19T08:18:27;27.10;99.90
27801;DHT22;15181;49.112;11.930;2022-07-19T08:20:54;27.20;99.90
27801;DHT22;15181;49.112;11.930;2022-07-19T08:23:20;27.30;99.90
27801;DHT22;15181;49.112;11.930;2022-07-19T08:25:47;27.40;99.90
27801;DHT22;15181;49.112;11.930;2022-07-19T08:28:14;27.50;99.90
27801;DHT22;15181;49.112;11.930;2022-07-19T08:30:42;27.50;99.90
27801;DHT22;15181;49.112;11.930;2022-07-19T08:33:09;27.60;99.90
27801;DHT22;15181;49.112;11.930;2022-07-19T08:35:36;27.70;99.90
27801;DHT22;15181;49.112;11.930;2022-07-19T08:38:03;27.80;99.90
27801;DHT22;15181;49.112;11.930;2022-07-19T08:40:33;27.90;99.90
27801;DHT22;15181;49.112;11.930;2022-07-19T08:43:03;27.90;99.90
27801;DHT22;15181;49.112;11.930;2022-07-19T08:45:31;28.00;99.90
27801;DHT22;15181;49.112;11.930;2022-07-19T08:48:00;28.10;99.90
27801;DHT22;15181;49.112;11.930;2022-07-19T08:50:28;28.20;99.90
27801;DHT22;15181;49.112;11.930;2022-07-19T08:52:55;28.30;99.90
27801;DHT22;15181;49.112;11.930;2022-07-19T08:55:23;28.40;99.90
27801;DHT22;15181;49.112;11.930;2022-07-19T08:57:50;28.60;99.90
27801;DHT22;15181;49.112;11.930;2022-07-19T09:00:23;28.70;99.90
27801;DHT22;15181;49.112;11.930;2022-07-19T09:02:52;28.80;99.90
27801;DHT22;15181;49.112;11.930;2022-07-19T09:05:21;28.90;99.90
27801;DHT22;15181;49.112;11.930;2022-07-19T09:08:01;28.90;99.90
27801;DHT22;15181;49.112;11.930;2022-07-19T09:10:28;29.00;99.90
27801;DHT22;15181;49.112;11.930;2022-07-19T09:12:59;29.10;99.90
27801;DHT22;15181;49.112;11.930;2022-07-19T09:15:37;29.20;99.90
27801;DHT22;15181;49.112;11.930;2022-07-19T09:18:09;29.20;99.90
27801;DHT22;15181;49.112;11.930;2022-07-19T09:20:37;29.30;99.90
27801;DHT22;15181;49.112;11.930;2022-07-19T09:23:05;29.30;99.90
27801;DHT22;15181;49.112;11.930;2022-07-19T09:25:37;29.40;99.90
27801;DHT22;15181;49.112;11.930;2022-07-19T09:28:05;29.50;99.90
27801;DHT22;15181;49.112;11.930;2022-07-19T09:30:38;29.60;99.90
27801;DHT22;15181;49.112;11.930;2022-07-19T09:33:11;29.70;99.90
27801;DHT22;15181;49.112;11.930;2022-07-19T09:35:41;29.80;99.90
27801;DHT22;15181;49.112;11.930;2022-07-19T09:38:23;29.80;99.90
27801;DHT22;15181;49.112;11.930;2022-07-19T09:40:52;29.90;99.40
27801;DHT22;15181;49.112;11.930;2022-07-19T09:43:20;30.00;99.70
27801;DHT22;15181;49.112;11.930;2022-07-19T09:45:48;29.90;99.60
27801;DHT22;15181;49.112;11.930;2022-07-19T09:48:17;30.00;99.50
27801;DHT22;15181;49.112;11.930;2022-07-19T09:50:46;30.00;98.90
27801;DHT22;15181;49.112;11.930;2022-07-19T09:53:18;30.00;99.00
27801;DHT22;15181;49.112;11.930;2022-07-19T09:55:47;30.00;97.60
27801;DHT22;15181;49.112;11.930;2022-07-19T09:58:15;30.10;97.30
27801;DHT22;15181;49.112;11.930;2022-07-19T10:00:43;30.10;97.50
27801;DHT22;15181;49.112;11.930;2022-07-19T10:03:10;30.10;96.40
27801;DHT22;15181;49.112;11.930;2022-07-19T10:05:37;30.20;96.70
27801;DHT22;15181;49.112;11.930;2022-07-19T10:08:06;30.20;95.60
27801;DHT22;15181;49.112;11.930;2022-07-19T10:10:33;30.30;95.20
27801;DHT22;15181;49.112;11.930;2022-07-19T10:13:01;30.30;94.90
27801;DHT22;15181;49.112;11.930;2022-07-19T10:15:34;30.40;96.10
27801;DHT22;15181;49.112;11.930;2022-07-19T10:18:08;30.40;96.30
27801;DHT22;15181;49.112;11.930;2022-07-19T10:20:37;30.60;96.30
27801;DHT22;15181;49.112;11.930;2022-07-19T10:23:06;30.60;95.90
27801;DHT22;15181;49.112;11.930;2022-07-19T10:25:42;30.60;94.70
27801;DHT22;15181;49.112;11.930;2022-07-19T10:28:32;30.60;95.40
27801;DHT22;15181;49.112;11.930;2022-07-19T10:31:00;30.60;94.60
27801;DHT22;15181;49.112;11.930;2022-07-19T10:33:29;30.70;95.20
27801;DHT22;15181;49.112;11.930;2022-07-19T10:35:57;30.70;94.80
27801;DHT22;15181;49.112;11.930;2022-07-19T10:38:25;30.80;95.50
27801;DHT22;15181;49.112;11.930;2022-07-19T10:40:53;30.90;94.10
27801;DHT22;15181;49.112;11.930;2022-07-19T10:43:24;31.00;93.80
27801;DHT22;15181;49.112;11.930;2022-07-19T10:46:08;31.00;94.50
27801;DHT22;15181;49.112;11.930;2022-07-19T10:48:38;31.10;94.10
27801;DHT22;15181;49.112;11.930;2022-07-19T10:51:05;31.10;93.50
27801;DHT22;15181;49.112;11.930;2022-07-19T10:54:02;31.20;93.80
27801;DHT22;15181;49.112;11.930;2022-07-19T10:56:36;31.20;90.90
27801;DHT22;15181;49.112;11.930;2022-07-19T10:59:05;31.20;92.30
27801;DHT22;15181;49.112;11.930;2022-07-19T11:01:34;31.30;93.00
27801;DHT22;15181;49.112;11.930;2022-07-19T11:04:24;31.30;93.10
27801;DHT22;15181;49.112;11.930;2022-07-19T11:06:52;31.40;92.60
27801;DHT22;15181;49.112;11.930;2022-07-19T11:09:43;31.40;92.40
27801;DHT22;15181;49.112;11.930;2022-07-19T11:12:35;31.40;93.10
27801;DHT22;15181;49.112;11.930;2022-07-19T11:15:07;31.50;91.20
27801;DHT22;15181;49.112;11.930;2022-07-19T11:17:35;31.30;91.10
27801;DHT22;15181;49.112;11.930;2022-07-19T11:20:08;31.30;91.70
27801;DHT22;15181;49.112;11.930;2022-07-19T11:22:39;31.40;91.70
27801;DHT22;15181;49.112;11.930;2022-07-19T11:25:09;31.50;92.10
27801;DHT22;15181;49.112;11.930;2022-07-19T11:27:39;31.60;93.10
27801;DHT22;15181;49.112;11.930;2022-07-19T11:30:08;31.70;91.30
27801;DHT22;15181;49.112;11.930;2022-07-19T11:32:35;31.70;91.00
27801;DHT22;15181;49.112;11.930;2022-07-19T11:35:05;31.70;90.70
27801;DHT22;15181;49.112;11.930;2022-07-19T11:37:34;31.70;90.90
27801;DHT22;15181;49.112;11.930;2022-07-19T11:40:01;31.80;91.80
27801;DHT22;15181;49.112;11.930;2022-07-19T11:42:35;31.90;90.70
27801;DHT22;15181;49.112;11.930;2022-07-19T11:45:10;32.00;90.60
27801;DHT22;15181;49.112;11.930;2022-07-19T11:47:41;32.00;90.60
27801;DHT22;15181;49.112;11.930;2022-07-19T11:50:23;32.00;90.20
27801;DHT22;15181;49.112;11.930;2022-07-19T11:52:55;32.00;90.60
27801;DHT22;15181;49.112;11.930;2022-07-19T11:55:28;32.00;90.70
27801;DHT22;15181;49.112;11.930;2022-07-19T11:58:01;32.00;91.00
27801;DHT22;15181;49.112;11.930;2022-07-19T12:00:37;32.10;90.60
27801;DHT22;15181;49.112;11.930;2022-07-19T12:03:15;32.10;90.80
27801;DHT22;15181;49.112;11.930;2022-07-19T12:05:57;32.20;90.40
27801;DHT22;15181;49.112;11.930;2022-07-19T12:08:52;32.20;89.30
27801;DHT22;15181;49.112;11.930;2022-07-19T12:11:42;32.20;88.50
27801;DHT22;15181;49.112;11.930;2022-07-19T12:14:24;32.20;88.90
27801;DHT22;15181;49.112;11.930;2022-07-19T12:17:09;32.20;88.50
27801;DHT22;15181;49.112;11.930;2022-07-19T12:19:36;32.30;88.60
27801;DHT22;15181;49.112;11.930;2022-07-19T12:22:03;32.30;89.50
27801;DHT22;15181;49.112;11.930;2022-07-19T12:24:30;32.30;88.30
27801;DHT22;15181;49.112;11.930;2022-07-19T12:27:00;32.40;88.40
27801;DHT22;15181;49.112;11.930;2022-07-19T12:29:31;32.40;87.40
27801;DHT22;15181;49.112;11.930;2022-07-19T12:32:01;32.40;88.40
27801;DHT22;15181;49.112;11.930;2022-07-19T12:34:42;32.50;86.70
27801;DHT22;15181;49.112;11.930;2022-07-19T12:37:23;32.60;84.30
27801;DHT22;15181;49.112;11.930;2022-07-19T12:40:04;32.60;85.70
27801;DHT22;15181;49.112;11.930;2022-07-19T12:42:40;32.60;85.40
27801;DHT22;15181;49.112;11.930;2022-07-19T12:45:11;32.60;84.70
27801;DHT22;15181;49.112;11.930;2022-07-19T12:47:39;32.50;85.20
27801;DHT22;15181;49.112;11.930;2022-07-19T12:50:07;32.50;82.40
27801;DHT22;15181;49.112;11.930;2022-07-19T12:52:34;32.60;83.70
27801;DHT22;15181;49.112;11.930;2022-07-19T12:55:04;32.70;83.10
27801;DHT22;15181;49.112;11.930;2022-07-19T12:57:32;32.80;85.20
27801;DHT22;15181;49.112;11.930;2022-07-19T13:00:00;32.80;82.10
27801;DHT22;15181;49.112;11.930;2022-07-19T13:02:28;32.80;80.00
27801;DHT22;15181;49.112;11.930;2022-07-19T13:04:55;32.90;81.90
27801;DHT22;15181;49.112;11.930;2022-07-19T13:07:22;32.90;79.50
27801;DHT22;15181;49.112;11.930;2022-07-19T13:09:49;32.90;80.60
27801;DHT22;15181;49.112;11.930;2022-07-19T13:12:16;33.00;81.10
27801;DHT22;15181;49.112;11.930;2022-07-19T13:14:43;33.00;79.20
27801;DHT22;15181;49.112;11.930;2022-07-19T13:17:10;33.10;80.30
27801;DHT22;15181;49.112;11.930;2022-07-19T13:19:39;33.10;81.00
27801;DHT22;15181;49.112;11.930;2022-07-19T13:22:06;33.20;80.40
27801;DHT22;15181;49.112;11.930;2022-07-19T13:24:33;33.20;78.10
27801;DHT22;15181;49.112;11.930;2022-07-19T13:27:00;33.20;78.50
27801;DHT22;15181;49.112;11.930;2022-07-19T13:29:27;33.10;75.80
27801;DHT22;15181;49.112;11.930;2022-07-19T13:31:54;33.10;75.90
27801;DHT22;15181;49.112;11.930;2022-07-19T13:34:21;33.20;78.10
27801;DHT22;15181;49.112;11.930;2022-07-19T13:36:50;33.20;78.80
27801;DHT22;15181;49.112;11.930;2022-07-19T13:39:17;33.30;78.60
27801;DHT22;15181;49.112;11.930;2022-07-19T13:41:44;33.30;78.10
27801;DHT22;15181;49.112;11.930;2022-07-19T13:44:11;33.20;75.50
27801;DHT22;15181;49.112;11.930;2022-07-19T13:46:38;33.30;75.60
27801;DHT22;15181;49.112;11.930;2022-07-19T13:49:04;33.30;78.20
27801;DHT22;15181;49.112;11.930;2022-07-19T13:51:32;33.30;78.20
27801;DHT22;15181;49.112;11.930;2022-07-19T13:54:00;33.30;79.40
27801;DHT22;15181;49.112;11.930;2022-07-19T13:56:27;33.30;79.60
27801;DHT22;15181;49.112;11.930;2022-07-19T13:58:53;33.30;80.50
27801;DHT22;15181;49.112;11.930;2022-07-19T14:01:20;33.30;78.20
27801;DHT22;15181;49.112;11.930;2022-07-19T14:03:48;33.30;81.30
27801;DHT22;15181;49.112;11.930;2022-07-19T14:06:15;33.40;76.30
27801;DHT22;15181;49.112;11.930;2022-07-19T14:08:42;33.40;76.10
27801;DHT22;15181;49.112;11.930;2022-07-19T14:11:10;33.40;75.90
27801;DHT22;15181;49.112;11.930;2022-07-19T14:13:40;33.40;77.30
27801;DHT22;15181;49.112;11.930;2022-07-19T14:16:07;33.40;79.70
27801;DHT22;15181;49.112;11.930;2022-07-19T14:18:34;33.40;78.30
27801;DHT22;15181;49.112;11.930;2022-07-19T14:21:01;33.50;80.20
27801;DHT22;15181;49.112;11.930;2022-07-19T14:23:28;33.40;77.70
27801;DHT22;15181;49.112;11.930;2022-07-19T14:25:56;33.50;77.40
27801;DHT22;15181;49.112;11.930;2022-07-19T14:28:24;33.50;78.00
27801;DHT22;15181;49.112;11.930;2022-07-19T14:30:51;33.50;77.30
27801;DHT22;15181;49.112;11.930;2022-07-19T14:33:18;33.40;78.80
27801;DHT22;15181;49.112;11.930;2022-07-19T14:35:45;33.50;78.90
27801;DHT22;15181;49.112;11.930;2022-07-19T14:38:12;33.60;80.40
27801;DHT22;15181;49.112;11.930;2022-07-19T14:40:39;33.50;76.80
27801;DHT22;15181;49.112;11.930;2022-07-19T14:43:06;33.50;77.20
27801;DHT22;15181;49.112;11.930;2022-07-19T14:45:34;33.50;78.80
27801;DHT22;15181;49.112;11.930;2022-07-19T14:48:01;33.50;77.40
27801;DHT22;15181;49.112;11.930;2022-07-19T14:50:28;33.50;77.30
27801;DHT22;15181;49.112;11.930;2022-07-19T14:52:55;33.50;77.10
27801;DHT22;15181;49.112;11.930;2022-07-19T14:55:22;33.50;77.00
27801;DHT22;15181;49.112;11.930;2022-07-19T14:57:48;33.50;78.00
27801;DHT22;15181;49.112;11.930;2022-07-19T15:00:16;33.50;77.90
27801;DHT22;15181;49.112;11.930;2022-07-19T15:02:44;33.50;78.30
27801;DHT22;15181;49.112;11.930;2022-07-19T15:05:11;33.50;76.70
27801;DHT22;15181;49.112;11.930;2022-07-19T15:07:38;33.50;77.40
27801;DHT22;15181;49.112;11.930;2022-07-19T15:10:05;33.50;76.30
27801;DHT22;15181;49.112;11.930;2022-07-19T15:12:34;33.50;76.20
27801;DHT22;15181;49.112;11.930;2022-07-19T15:15:00;33.40;76.50
27801;DHT22;15181;49.112;11.930;2022-07-19T15:17:27;33.40;77.00
27801;DHT22;15181;49.112;11.930;2022-07-19T15:19:55;33.50;78.20
27801;DHT22;15181;49.112;11.930;2022-07-19T15:22:22;33.60;76.40
27801;DHT22;15181;49.112;11.930;2022-07-19T15:24:49;33.50;75.90